sensor_id;sensor_type;location;lat;lon;timestamp;pressure;altitude;pressure_sealevel;temperature;humidity
18784;BME280;9520;50.954;6.968;2023-03-15T00:00:04;100617.16;;;10.75;42.95
18784;BME280;9520;50.954;6.968;2023-03-15T00:00:27;100633.72;;;10.83;42.75
18784;BME280;9520;50.954;6.968;2023-03-15T00:00:54;100629.31;;;10.82;42.77
18784;BME280;9520;50.954;6.968;2023-03-15T00:01:26;100633.63;;;10.88;43.00
18784;BME280;9520;50.954;6.968;2023-03-15T00:01:56;100619.75;;;10.76;42.74
18784;BME280;9520;50.954;6.968;2023-03-15T00:02:47;100627.47;;;10.87;42.90
18784;BME280;9520;50.954;6.968;2023-03-15T00:03:18;100541.28;;;10.38;42.79
18784;BME280;9520;50.954;6.968;2023-03-15T00:03:41;100637.06;;;10.91;42.84
18784;BME280;9520;50.954;6.968;2023-03-15T00:04:07;100608.31;;;10.76;42.85
18784;BME280;9520;50.954;6.968;2023-03-15T00:04:33;100638.84;;;10.91;42.82
18784;BME280;9520;50.954;6.968;2023-03-15T00:05:11;100632.66;;;10.92;42.62
18784;BME280;9520;50.954;6.968;2023-03-15T00:06:46;100633.94;;;10.69;43.26
18784;BME280;9520;50.954;6.968;2023-03-15T00:07:12;100638.03;;;10.86;43.11
18784;BME280;9520;50.954;6.968;2023-03-15T00:07:59;100646.75;;;10.92;42.90
18784;BME280;9520;50.954;6.968;2023-03-15T00:08:40;100634.50;;;10.88;42.93
18784;BME280;9520;50.954;6.968;2023-03-15T00:09:16;100646.63;;;11.00;43.41
18784;BME280;9520;50.954;6.968;2023-03-15T00:09:43;100639.56;;;11.00;42.86
18784;BME280;9520;50.954;6.968;2023-03-15T00:10:16;100645.78;;;10.96;42.97
18784;BME280;9520;50.954;6.968;2023-03-15T00:10:40;100645.91;;;10.90;43.05
18784;BME280;9520;50.954;6.968;2023-03-15T00:11:08;100647.59;;;10.94;43.36
18784;BME280;9520;50.954;6.968;2023-03-15T00:11:35;100638.00;;;10.89;43.22
18784;BME280;9520;50.954;6.968;2023-03-15T00:12:09;100639.69;;;10.94;43.12
18784;BME280;9520;50.954;6.968;2023-03-15T00:12:36;100639.50;;;11.03;42.79
18784;BME280;9520;50.954;6.968;2023-03-15T00:13:03;100650.06;;;11.03;42.73
18784;BME280;9520;50.954;6.968;2023-03-15T00:13:44;100631.75;;;10.94;42.83
18784;BME280;9520;50.954;6.968;2023-03-15T00:14:20;100647.41;;;11.05;42.70
18784;BME280;9520;50.954;6.968;2023-03-15T00:14:43;100612.53;;;10.86;42.51
18784;BME280;9520;50.954;6.968;2023-03-15T00:15:13;100641.34;;;11.00;42.47
18784;BME280;9520;50.954;6.968;2023-03-15T00:15:44;100622.22;;;10.86;42.43
18784;BME280;9520;50.954;6.968;2023-03-15T00:16:07;100647.38;;;11.06;42.71
18784;BME280;9520;50.954;6.968;2023-03-15T00:16:31;100650.09;;;11.02;42.56
18784;BME280;9520;50.954;6.968;2023-03-15T00:17:14;100652.72;;;11.02;42.46
18784;BME280;9520;50.954;6.968;2023-03-15T00:17:46;100647.47;;;11.00;42.79
18784;BME280;9520;50.954;6.968;2023-03-15T00:18:40;100641.53;;;10.89;42.92
18784;BME280;9520;50.954;6.968;2023-03-15T00:19:32;100646.63;;;10.98;42.69
18784;BME280;9520;50.954;6.968;2023-03-15T00:20:10;100646.75;;;10.92;42.95
18784;BME280;9520;50.954;6.968;2023-03-15T00:21:10;100629.06;;;10.45;43.41
18784;BME280;9520;50.954;6.968;2023-03-15T00:21:33;100654.09;;;10.72;43.25
18784;BME280;9520;50.954;6.968;2023-03-15T00:21:55;100643.59;;;10.70;43.21
18784;BME280;9520;50.954;6.968;2023-03-15T00:22:18;100657.63;;;10.71;43.31
18784;BME280;9520;50.954;6.968;2023-03-15T00:22:40;100650.59;;;10.73;43.33
18784;BME280;9520;50.954;6.968;2023-03-15T00:23:01;100658.50;;;10.73;43.47
18784;BME280;9520;50.954;6.968;2023-03-15T00:23:23;100654.97;;;10.75;43.57
18784;BME280;9520;50.954;6.968;2023-03-15T00:23:47;100655.78;;;10.79;43.39
18784;BME280;9520;50.954;6.968;2023-03-15T00:24:09;100647.94;;;10.73;43.35
18784;BME280;9520;50.954;6.968;2023-03-15T00:24:31;100660.09;;;10.81;43.36
18784;BME280;9520;50.954;6.968;2023-03-15T00:24:53;100650.91;;;10.52;43.52
18784;BME280;9520;50.954;6.968;2023-03-15T00:25:15;100655.28;;;10.54;43.49
18784;BME280;9520;50.954;6.968;2023-03-15T00:25:37;100652.66;;;10.54;43.71
18784;BME280;9520;50.954;6.968;2023-03-15T00:25:59;100656.16;;;10.55;43.79
18784;BME280;9520;50.954;6.968;2023-03-15T00:26:22;100663.91;;;10.64;43.73
18784;BME280;9520;50.954;6.968;2023-03-15T00:26:46;100648.19;;;10.58;43.69
18784;BME280;9520;50.954;6.968;2023-03-15T00:27:08;100655.88;;;10.71;43.84
18784;BME280;9520;50.954;6.968;2023-03-15T00:27:30;100634.03;;;10.63;43.43
18784;BME280;9520;50.954;6.968;2023-03-15T00:27:53;100663.78;;;10.73;43.40
18784;BME280;9520;50.954;6.968;2023-03-15T00:28:15;100636.69;;;10.62;43.71
18784;BME280;9520;50.954;6.968;2023-03-15T00:28:39;100653.31;;;10.67;44.06
18784;BME280;9520;50.954;6.968;2023-03-15T00:29:01;100664.63;;;10.75;44.06
18784;BME280;9520;50.954;6.968;2023-03-15T00:29:23;100644.50;;;10.69;43.60
18784;BME280;9520;50.954;6.968;2023-03-15T00:29:47;100663.72;;;10.76;43.76
18784;BME280;9520;50.954;6.968;2023-03-15T00:30:10;100647.88;;;10.77;43.63
18784;BME280;9520;50.954;6.968;2023-03-15T00:30:33;100659.34;;;10.75;43.55
18784;BME280;9520;50.954;6.968;2023-03-15T00:31:04;100653.13;;;10.79;43.45
18784;BME280;9520;50.954;6.968;2023-03-15T00:31:29;100639.97;;;10.76;43.51
18784;BME280;9520;50.954;6.968;2023-03-15T00:31:51;100655.69;;;10.85;43.58
18784;BME280;9520;50.954;6.968;2023-03-15T00:32:15;100648.59;;;10.87;43.57
18784;BME280;9520;50.954;6.968;2023-03-15T00:32:37;100659.91;;;10.94;43.72
18784;BME280;9520;50.954;6.968;2023-03-15T00:32:59;100657.25;;;10.95;43.80
18784;BME280;9520;50.954;6.968;2023-03-15T00:33:21;100662.63;;;10.89;43.96
18784;BME280;9520;50.954;6.968;2023-03-15T00:33:43;100653.75;;;10.93;43.91
18784;BME280;9520;50.954;6.968;2023-03-15T00:34:05;100645.16;;;10.82;43.77
18784;BME280;9520;50.954;6.968;2023-03-15T00:34:28;100658.16;;;10.93;43.42
18784;BME280;9520;50.954;6.968;2023-03-15T00:34:50;100658.09;;;10.96;43.21
18784;BME280;9520;50.954;6.968;2023-03-15T00:35:15;100656.38;;;10.95;43.22
18784;BME280;9520;50.954;6.968;2023-03-15T00:35:39;100652.81;;;10.96;43.23
18784;BME280;9520;50.954;6.968;2023-03-15T00:36:04;100658.94;;;10.99;43.15
18784;BME280;9520;50.954;6.968;2023-03-15T00:36:26;100660.66;;;11.02;43.11
18784;BME280;9520;50.954;6.968;2023-03-15T00:36:48;100655.34;;;11.03;43.05
18784;BME280;9520;50.954;6.968;2023-03-15T00:37:14;100657.03;;;11.07;43.20
18784;BME280;9520;50.954;6.968;2023-03-15T00:37:37;100655.19;;;11.12;43.18
18784;BME280;9520;50.954;6.968;2023-03-15T00:37:59;100656.16;;;11.07;42.99
18784;BME280;9520;50.954;6.968;2023-03-15T00:38:21;100659.75;;;11.04;43.01
18784;BME280;9520;50.954;6.968;2023-03-15T00:38:42;100658.88;;;11.02;43.02
18784;BME280;9520;50.954;6.968;2023-03-15T00:39:05;100666.78;;;11.02;42.94
18784;BME280;9520;50.954;6.968;2023-03-15T00:39:27;100662.53;;;10.95;43.04
18784;BME280;9520;50.954;6.968;2023-03-15T00:39:49;100659.94;;;10.92;43.08
18784;BME280;9520;50.954;6.968;2023-03-15T00:40:11;100661.75;;;10.90;43.22
18784;BME280;9520;50.954;6.968;2023-03-15T00:40:34;100651.31;;;10.81;43.28
18784;BME280;9520;50.954;6.968;2023-03-15T00:41:04;100654.72;;;10.89;43.18
18784;BME280;9520;50.954;6.968;2023-03-15T00:41:25;100655.63;;;10.87;43.33
18784;BME280;9520;50.954;6.968;2023-03-15T00:41:47;100659.13;;;10.87;43.59
18784;BME280;9520;50.954;6.968;2023-03-15T00:42:09;100660.81;;;10.91;43.52
18784;BME280;9520;50.954;6.968;2023-03-15T00:42:32;100654.81;;;10.81;43.33
18784;BME280;9520;50.954;6.968;2023-03-15T00:42:57;100661.75;;;10.89;43.29
18784;BME280;9520;50.954;6.968;2023-03-15T00:43:18;100668.75;;;10.91;43.30
18784;BME280;9520;50.954;6.968;2023-03-15T00:43:42;100666.09;;;10.91;43.43
18784;BME280;9520;50.954;6.968;2023-03-15T00:44:07;100667.81;;;10.95;43.46
18784;BME280;9520;50.954;6.968;2023-03-15T00:44:29;100668.72;;;10.93;43.43
18784;BME280;9520;50.954;6.968;2023-03-15T00:44:52;100666.00;;;10.97;43.27
18784;BME280;9520;50.954;6.968;2023-03-15T00:45:15;100662.41;;;11.01;43.07
18784;BME280;9520;50.954;6.968;2023-03-15T00:45:37;100662.56;;;10.92;43.04
18784;BME280;9520;50.954;6.968;2023-03-15T00:46:00;100660.81;;;10.93;43.21
18784;BME280;9520;50.954;6.968;2023-03-15T00:46:22;100665.13;;;10.97;43.18
18784;BME280;9520;50.954;6.968;2023-03-15T00:46:44;100658.94;;;10.99;43.10
18784;BME280;9520;50.954;6.968;2023-03-15T00:47:06;100655.44;;;10.97;42.98
18784;BME280;9520;50.954;6.968;2023-03-15T00:47:29;100665.00;;;11.04;43.22
18784;BME280;9520;50.954;6.968;2023-03-15T00:47:53;100675.59;;;11.01;43.14
18784;BME280;9520;50.954;6.968;2023-03-15T00:48:15;100663.47;;;10.91;43.15
18784;BME280;9520;50.954;6.968;2023-03-15T00:48:37;100662.56;;;10.94;43.13
18784;BME280;9520;50.954;6.968;2023-03-15T00:49:02;100667.69;;;11.01;43.13
18784;BME280;9520;50.954;6.968;2023-03-15T00:49:24;100667.66;;;11.03;43.15
18784;BME280;9520;50.954;6.968;2023-03-15T00:49:46;100663.25;;;11.03;43.50
18784;BME280;9520;50.954;6.968;2023-03-15T00:50:09;100644.91;;;10.97;43.54
18784;BME280;9520;50.954;6.968;2023-03-15T00:50:31;100664.00;;;11.11;43.29
18784;BME280;9520;50.954;6.968;2023-03-15T00:51:01;100665.66;;;11.17;43.07
18784;BME280;9520;50.954;6.968;2023-03-15T00:51:23;100668.38;;;11.14;43.20
18784;BME280;9520;50.954;6.968;2023-03-15T00:51:46;100672.78;;;11.13;42.97
18784;BME280;9520;50.954;6.968;2023-03-15T00:52:08;100669.25;;;11.14;42.90
18784;BME280;9520;50.954;6.968;2023-03-15T00:52:33;100670.91;;;11.18;42.78
18784;BME280;9520;50.954;6.968;2023-03-15T00:52:56;100668.41;;;11.11;42.86
18784;BME280;9520;50.954;6.968;2023-03-15T00:53:18;100663.09;;;11.14;42.88
18784;BME280;9520;50.954;6.968;2023-03-15T00:53:44;100659.75;;;11.04;42.99
18784;BME280;9520;50.954;6.968;2023-03-15T00:54:06;100658.81;;;11.07;43.15
18784;BME280;9520;50.954;6.968;2023-03-15T00:54:28;100664.84;;;11.15;42.97
18784;BME280;9520;50.954;6.968;2023-03-15T00:54:52;100663.88;;;11.19;42.94
18784;BME280;9520;50.954;6.968;2023-03-15T00:55:17;100649.84;;;11.15;43.21
18784;BME280;9520;50.954;6.968;2023-03-15T00:55:41;100661.97;;;11.25;42.93
18784;BME280;9520;50.954;6.968;2023-03-15T00:56:04;100665.53;;;11.24;42.86
18784;BME280;9520;50.954;6.968;2023-03-15T00:56:27;100654.31;;;11.10;43.09
18784;BME280;9520;50.954;6.968;2023-03-15T00:56:51;100664.31;;;10.93;43.10
18784;BME280;9520;50.954;6.968;2023-03-15T00:57:14;100666.31;;;10.79;43.49
18784;BME280;9520;50.954;6.968;2023-03-15T00:57:35;100670.72;;;10.80;43.66
18784;BME280;9520;50.954;6.968;2023-03-15T00:57:57;100662.66;;;10.86;43.74
18784;BME280;9520;50.954;6.968;2023-03-15T00:58:20;100666.47;;;10.70;44.34
18784;BME280;9520;50.954;6.968;2023-03-15T00:58:47;100655.91;;;10.70;43.94
18784;BME280;9520;50.954;6.968;2023-03-15T00:59:09;100670.81;;;10.72;43.85
18784;BME280;9520;50.954;6.968;2023-03-15T00:59:32;100669.00;;;10.76;43.85
18784;BME280;9520;50.954;6.968;2023-03-15T00:59:56;100668.00;;;10.85;43.88
18784;BME280;9520;50.954;6.968;2023-03-15T01:00:19;100666.19;;;10.87;43.82
18784;BME280;9520;50.954;6.968;2023-03-15T01:00:44;100664.31;;;10.93;43.64
18784;BME280;9520;50.954;6.968;2023-03-15T01:01:10;100673.91;;;10.99;43.72
18784;BME280;9520;50.954;6.968;2023-03-15T01:01:35;100659.81;;;11.00;43.65
18784;BME280;9520;50.954;6.968;2023-03-15T01:02:05;100670.22;;;11.07;43.71
18784;BME280;9520;50.954;6.968;2023-03-15T01:02:26;100671.19;;;11.03;43.87
18784;BME280;9520;50.954;6.968;2023-03-15T01:02:49;100666.88;;;10.99;43.77
18784;BME280;9520;50.954;6.968;2023-03-15T01:03:18;100658.09;;;10.96;43.88
18784;BME280;9520;50.954;6.968;2023-03-15T01:03:45;100658.97;;;10.96;43.92
18784;BME280;9520;50.954;6.968;2023-03-15T01:04:36;100653.53;;;11.05;43.82
18784;BME280;9520;50.954;6.968;2023-03-15T01:05:29;100670.91;;;11.18;43.84
18784;BME280;9520;50.954;6.968;2023-03-15T01:06:26;100660.56;;;11.06;44.16
18784;BME280;9520;50.954;6.968;2023-03-15T01:06:57;100675.41;;;11.15;44.13
18784;BME280;9520;50.954;6.968;2023-03-15T01:07:59;100677.97;;;11.16;44.05
18784;BME280;9520;50.954;6.968;2023-03-15T01:08:31;100667.47;;;11.15;44.47
18784;BME280;9520;50.954;6.968;2023-03-15T01:09:16;100671.81;;;11.16;44.68
18784;BME280;9520;50.954;6.968;2023-03-15T01:10:16;100678.16;;;11.07;44.59
18784;BME280;9520;50.954;6.968;2023-03-15T01:10:42;100688.53;;;11.16;44.53
18784;BME280;9520;50.954;6.968;2023-03-15T01:11:06;100655.44;;;10.99;44.59
18784;BME280;9520;50.954;6.968;2023-03-15T01:11:34;100660.63;;;11.03;44.54
18784;BME280;9520;50.954;6.968;2023-03-15T01:11:57;100685.97;;;11.13;44.86
18784;BME280;9520;50.954;6.968;2023-03-15T01:12:19;100680.59;;;11.18;44.75
18784;BME280;9520;50.954;6.968;2023-03-15T01:12:44;100679.72;;;11.17;44.81
18784;BME280;9520;50.954;6.968;2023-03-15T01:13:13;100668.44;;;11.09;44.81
18784;BME280;9520;50.954;6.968;2023-03-15T01:14:20;100676.19;;;11.18;44.82
18784;BME280;9520;50.954;6.968;2023-03-15T01:14:43;100672.81;;;11.10;44.91
18784;BME280;9520;50.954;6.968;2023-03-15T01:15:07;100666.25;;;10.82;45.13
18784;BME280;9520;50.954;6.968;2023-03-15T01:15:29;100670.66;;;10.81;45.08
18784;BME280;9520;50.954;6.968;2023-03-15T01:15:52;100669.03;;;10.74;45.50
18784;BME280;9520;50.954;6.968;2023-03-15T01:16:15;100671.59;;;10.79;45.32
18784;BME280;9520;50.954;6.968;2023-03-15T01:16:36;100663.59;;;10.83;45.40
18784;BME280;9520;50.954;6.968;2023-03-15T01:16:58;100667.88;;;10.91;45.46
18784;BME280;9520;50.954;6.968;2023-03-15T01:17:20;100677.50;;;10.95;45.73
18784;BME280;9520;50.954;6.968;2023-03-15T01:17:43;100674.88;;;10.93;45.79
18784;BME280;9520;50.954;6.968;2023-03-15T01:18:05;100675.66;;;10.98;45.69
18784;BME280;9520;50.954;6.968;2023-03-15T01:18:26;100681.84;;;10.97;45.78
18784;BME280;9520;50.954;6.968;2023-03-15T01:18:51;100680.06;;;10.99;45.82
18784;BME280;9520;50.954;6.968;2023-03-15T01:19:14;100682.63;;;11.04;45.57
18784;BME280;9520;50.954;6.968;2023-03-15T01:19:36;100682.56;;;11.07;45.63
18784;BME280;9520;50.954;6.968;2023-03-15T01:19:58;100681.59;;;11.12;45.54
18784;BME280;9520;50.954;6.968;2023-03-15T01:20:20;100653.69;;;10.96;45.75
18784;BME280;9520;50.954;6.968;2023-03-15T01:20:44;100677.19;;;11.13;45.67
18784;BME280;9520;50.954;6.968;2023-03-15T01:21:09;100685.09;;;11.11;45.65
18784;BME280;9520;50.954;6.968;2023-03-15T01:21:31;100678.16;;;11.07;45.38
18784;BME280;9520;50.954;6.968;2023-03-15T01:21:53;100680.94;;;10.98;45.60
18784;BME280;9520;50.954;6.968;2023-03-15T01:22:15;100683.66;;;10.95;45.42
18784;BME280;9520;50.954;6.968;2023-03-15T01:22:36;100677.50;;;10.95;45.41
18784;BME280;9520;50.954;6.968;2023-03-15T01:23:00;100686.22;;;10.98;45.42
18784;BME280;9520;50.954;6.968;2023-03-15T01:23:22;100675.75;;;10.94;45.60
18784;BME280;9520;50.954;6.968;2023-03-15T01:23:44;100670.56;;;10.89;45.65
18784;BME280;9520;50.954;6.968;2023-03-15T01:24:09;100684.72;;;10.82;45.72
18784;BME280;9520;50.954;6.968;2023-03-15T01:24:33;100681.28;;;10.78;46.16
18784;BME280;9520;50.954;6.968;2023-03-15T01:24:55;100680.41;;;10.78;46.04
18784;BME280;9520;50.954;6.968;2023-03-15T01:25:19;100675.19;;;10.73;46.05
18784;BME280;9520;50.954;6.968;2023-03-15T01:25:41;100675.91;;;10.83;46.30
18784;BME280;9520;50.954;6.968;2023-03-15T01:26:05;100673.28;;;10.83;46.45
18784;BME280;9520;50.954;6.968;2023-03-15T01:26:27;100680.22;;;10.90;45.96
18784;BME280;9520;50.954;6.968;2023-03-15T01:26:50;100686.47;;;10.83;45.96
18784;BME280;9520;50.954;6.968;2023-03-15T01:27:12;100682.16;;;10.77;46.15
18784;BME280;9520;50.954;6.968;2023-03-15T01:27:34;100679.53;;;10.77;46.40
18784;BME280;9520;50.954;6.968;2023-03-15T01:27:57;100682.88;;;10.87;46.32
18784;BME280;9520;50.954;6.968;2023-03-15T01:28:18;100675.09;;;10.79;46.22
18784;BME280;9520;50.954;6.968;2023-03-15T01:28:40;100689.91;;;10.88;46.13
18784;BME280;9520;50.954;6.968;2023-03-15T01:29:02;100685.50;;;10.90;46.07
18784;BME280;9520;50.954;6.968;2023-03-15T01:29:26;100674.09;;;10.87;46.05
18784;BME280;9520;50.954;6.968;2023-03-15T01:29:49;100688.94;;;10.95;45.97
18784;BME280;9520;50.954;6.968;2023-03-15T01:30:11;100668.81;;;10.88;46.03
18784;BME280;9520;50.954;6.968;2023-03-15T01:30:33;100677.50;;;10.95;46.00
18784;BME280;9520;50.954;6.968;2023-03-15T01:30:56;100695.75;;;11.07;46.28
18784;BME280;9520;50.954;6.968;2023-03-15T01:31:22;100693.97;;;11.09;46.32
18784;BME280;9520;50.954;6.968;2023-03-15T01:31:44;100696.63;;;11.07;46.05
18784;BME280;9520;50.954;6.968;2023-03-15T01:32:06;100688.78;;;11.04;46.05
18784;BME280;9520;50.954;6.968;2023-03-15T01:32:29;100694.16;;;10.98;46.09
18784;BME280;9520;50.954;6.968;2023-03-15T01:32:50;100689.97;;;10.85;46.31
18784;BME280;9520;50.954;6.968;2023-03-15T01:33:12;100699.59;;;10.86;46.33
18784;BME280;9520;50.954;6.968;2023-03-15T01:33:34;100696.88;;;10.91;46.20
18784;BME280;9520;50.954;6.968;2023-03-15T01:33:57;100693.34;;;10.95;46.32
18784;BME280;9520;50.954;6.968;2023-03-15T01:34:22;100681.09;;;10.89;46.24
18784;BME280;9520;50.954;6.968;2023-03-15T01:34:43;100695.03;;;10.97;46.39
18784;BME280;9520;50.954;6.968;2023-03-15T01:35:06;100679.28;;;10.91;46.21
18784;BME280;9520;50.954;6.968;2023-03-15T01:35:28;100702.84;;;11.03;46.20
18784;BME280;9520;50.954;6.968;2023-03-15T01:35:57;100692.28;;;11.05;46.42
18784;BME280;9520;50.954;6.968;2023-03-15T01:36:19;100694.06;;;11.03;46.40
18784;BME280;9520;50.954;6.968;2023-03-15T01:36:41;100694.88;;;11.06;46.32
18784;BME280;9520;50.954;6.968;2023-03-15T01:37:03;100686.22;;;11.00;46.09
18784;BME280;9520;50.954;6.968;2023-03-15T01:37:31;100701.81;;;11.12;46.42
18784;BME280;9520;50.954;6.968;2023-03-15T01:37:55;100683.56;;;11.00;46.62
18784;BME280;9520;50.954;6.968;2023-03-15T01:38:16;100700.94;;;11.13;46.66
18784;BME280;9520;50.954;6.968;2023-03-15T01:38:39;100689.66;;;11.05;46.75
18784;BME280;9520;50.954;6.968;2023-03-15T01:39:02;100696.53;;;11.12;46.57
18784;BME280;9520;50.954;6.968;2023-03-15T01:39:32;100702.75;;;11.09;46.63
18784;BME280;9520;50.954;6.968;2023-03-15T01:39:54;100703.69;;;11.05;46.63
18784;BME280;9520;50.954;6.968;2023-03-15T01:40:17;100702.78;;;11.06;46.61
18784;BME280;9520;50.954;6.968;2023-03-15T01:40:40;100695.75;;;11.05;46.63
18784;BME280;9520;50.954;6.968;2023-03-15T01:41:03;100704.47;;;11.10;46.62
18784;BME280;9520;50.954;6.968;2023-03-15T01:41:25;100697.47;;;11.09;46.79
18784;BME280;9520;50.954;6.968;2023-03-15T01:41:50;100701.81;;;11.13;46.80
18784;BME280;9520;50.954;6.968;2023-03-15T01:42:12;100705.44;;;11.06;46.88
18784;BME280;9520;50.954;6.968;2023-03-15T01:42:50;100708.22;;;10.99;47.41
18784;BME280;9520;50.954;6.968;2023-03-15T01:43:17;100710.94;;;10.94;47.20
18784;BME280;9520;50.954;6.968;2023-03-15T01:43:41;100699.50;;;10.92;47.06
18784;BME280;9520;50.954;6.968;2023-03-15T01:44:11;100704.69;;;10.98;47.10
18784;BME280;9520;50.954;6.968;2023-03-15T01:44:54;100706.44;;;10.99;47.10
18784;BME280;9520;50.954;6.968;2023-03-15T01:46:31;100710.94;;;10.93;47.90
18784;BME280;9520;50.954;6.968;2023-03-15T01:47:04;100696.97;;;10.86;48.32
18784;BME280;9520;50.954;6.968;2023-03-15T01:47:29;100721.56;;;10.88;48.58
18784;BME280;9520;50.954;6.968;2023-03-15T01:47:53;100714.63;;;10.81;48.75
18784;BME280;9520;50.954;6.968;2023-03-15T01:48:16;100706.72;;;10.81;48.55
18784;BME280;9520;50.954;6.968;2023-03-15T01:48:39;100706.06;;;10.68;48.34
18784;BME280;9520;50.954;6.968;2023-03-15T01:49:07;100709.72;;;10.58;48.46
18784;BME280;9520;50.954;6.968;2023-03-15T01:49:33;100711.72;;;10.41;48.78
18784;BME280;9520;50.954;6.968;2023-03-15T01:50:00;100722.31;;;10.36;49.03
18784;BME280;9520;50.954;6.968;2023-03-15T01:50:24;100713.00;;;10.07;49.70
18784;BME280;9520;50.954;6.968;2023-03-15T01:50:46;100699.25;;;9.86;50.00
18784;BME280;9520;50.954;6.968;2023-03-15T01:51:14;100713.00;;;10.07;50.07
18784;BME280;9520;50.954;6.968;2023-03-15T01:51:40;100711.16;;;10.18;50.24
18784;BME280;9520;50.954;6.968;2023-03-15T01:52:06;100723.38;;;10.23;50.34
18784;BME280;9520;50.954;6.968;2023-03-15T01:52:50;100718.84;;;10.34;50.25
18784;BME280;9520;50.954;6.968;2023-03-15T01:53:13;100717.16;;;10.30;50.08
18784;BME280;9520;50.954;6.968;2023-03-15T01:53:37;100716.16;;;10.39;49.90
18784;BME280;9520;50.954;6.968;2023-03-15T01:54:04;100726.75;;;10.36;50.10
18784;BME280;9520;50.954;6.968;2023-03-15T01:54:29;100676.91;;;10.16;49.93
18784;BME280;9520;50.954;6.968;2023-03-15T01:54:56;100704.03;;;10.24;50.07
18784;BME280;9520;50.954;6.968;2023-03-15T01:55:21;100728.50;;;10.35;50.10
18784;BME280;9520;50.954;6.968;2023-03-15T01:55:57;100724.06;;;10.37;50.08
18784;BME280;9520;50.954;6.968;2023-03-15T01:56:27;100722.19;;;10.47;49.81
18784;BME280;9520;50.954;6.968;2023-03-15T01:56:53;100717.78;;;10.48;49.78
18784;BME280;9520;50.954;6.968;2023-03-15T01:57:21;100721.22;;;10.54;49.88
18784;BME280;9520;50.954;6.968;2023-03-15T01:57:47;100720.34;;;10.54;49.86
18784;BME280;9520;50.954;6.968;2023-03-15T01:58:11;100715.28;;;10.38;49.84
18784;BME280;9520;50.954;6.968;2023-03-15T01:58:37;100719.66;;;10.39;49.76
18784;BME280;9520;50.954;6.968;2023-03-15T01:59:04;100727.94;;;10.08;50.08
18784;BME280;9520;50.954;6.968;2023-03-15T01:59:30;100727.06;;;10.07;50.20
18784;BME280;9520;50.954;6.968;2023-03-15T01:59:58;100729.06;;;9.87;50.94
18784;BME280;9520;50.954;6.968;2023-03-15T02:00:33;100691.63;;;9.61;51.14
18784;BME280;9520;50.954;6.968;2023-03-15T02:01:01;100697.59;;;9.75;51.51
18784;BME280;9520;50.954;6.968;2023-03-15T02:01:26;100724.59;;;9.93;51.72
18784;BME280;9520;50.954;6.968;2023-03-15T02:01:48;100721.91;;;10.01;51.52
18784;BME280;9520;50.954;6.968;2023-03-15T02:02:12;100700.94;;;9.89;51.59
18784;BME280;9520;50.954;6.968;2023-03-15T02:02:39;100713.94;;;10.06;51.83
18784;BME280;9520;50.954;6.968;2023-03-15T02:03:15;100725.28;;;10.09;51.40
18784;BME280;9520;50.954;6.968;2023-03-15T02:03:44;100719.34;;;9.92;51.15
18784;BME280;9520;50.954;6.968;2023-03-15T02:04:10;100722.19;;;9.72;51.63
18784;BME280;9520;50.954;6.968;2023-03-15T02:04:42;100717.09;;;9.60;51.97
18784;BME280;9520;50.954;6.968;2023-03-15T02:05:10;100724.97;;;9.60;52.11
18784;BME280;9520;50.954;6.968;2023-03-15T02:05:38;100716.22;;;9.60;51.92
18784;BME280;9520;50.954;6.968;2023-03-15T02:06:10;100727.66;;;9.54;52.00
18784;BME280;9520;50.954;6.968;2023-03-15T02:06:53;100696.97;;;9.53;52.18
18784;BME280;9520;50.954;6.968;2023-03-15T02:07:24;100728.34;;;9.76;52.13
18784;BME280;9520;50.954;6.968;2023-03-15T02:07:49;100720.38;;;9.79;51.91
18784;BME280;9520;50.954;6.968;2023-03-15T02:08:15;100730.88;;;9.82;52.12
18784;BME280;9520;50.954;6.968;2023-03-15T02:08:43;100720.28;;;9.88;52.11
18784;BME280;9520;50.954;6.968;2023-03-15T02:09:09;100738.63;;;9.95;52.22
18784;BME280;9520;50.954;6.968;2023-03-15T02:09:46;100732.44;;;9.98;51.96
18784;BME280;9520;50.954;6.968;2023-03-15T02:10:13;100732.38;;;10.06;51.66
18784;BME280;9520;50.954;6.968;2023-03-15T02:10:42;100735.75;;;10.15;51.61
18784;BME280;9520;50.954;6.968;2023-03-15T02:11:05;100726.13;;;10.13;51.53
18784;BME280;9520;50.954;6.968;2023-03-15T02:11:27;100732.22;;;10.19;51.36
18784;BME280;9520;50.954;6.968;2023-03-15T02:11:50;100726.88;;;10.25;51.30
18784;BME280;9520;50.954;6.968;2023-03-15T02:12:13;100728.59;;;10.26;51.48
18784;BME280;9520;50.954;6.968;2023-03-15T02:12:37;100741.75;;;10.29;51.55
18784;BME280;9520;50.954;6.968;2023-03-15T02:13:02;100741.72;;;10.32;51.46
18784;BME280;9520;50.954;6.968;2023-03-15T02:13:25;100737.31;;;10.31;51.42
18784;BME280;9520;50.954;6.968;2023-03-15T02:13:52;100725.25;;;10.12;51.37
18784;BME280;9520;50.954;6.968;2023-03-15T02:14:15;100730.44;;;10.21;51.28
18784;BME280;9520;50.954;6.968;2023-03-15T02:14:38;100727.72;;;10.29;51.22
18784;BME280;9520;50.954;6.968;2023-03-15T02:15:05;100736.41;;;10.35;51.25
18784;BME280;9520;50.954;6.968;2023-03-15T02:15:29;100745.16;;;10.39;50.93
18784;BME280;9520;50.954;6.968;2023-03-15T02:15:55;100736.56;;;10.25;50.79
18784;BME280;9520;50.954;6.968;2023-03-15T02:16:27;100737.59;;;10.09;50.94
18784;BME280;9520;50.954;6.968;2023-03-15T02:16:58;100734.06;;;10.10;50.87
18784;BME280;9520;50.954;6.968;2023-03-15T02:17:28;100739.34;;;10.11;50.82
18784;BME280;9520;50.954;6.968;2023-03-15T02:17:58;100737.50;;;10.16;50.86
18784;BME280;9520;50.954;6.968;2023-03-15T02:18:20;100740.13;;;10.19;50.67
18784;BME280;9520;50.954;6.968;2023-03-15T02:18:46;100731.41;;;10.16;50.80
18784;BME280;9520;50.954;6.968;2023-03-15T02:19:17;100738.31;;;10.24;50.84
18784;BME280;9520;50.954;6.968;2023-03-15T02:19:48;100706.09;;;10.00;50.65
18784;BME280;9520;50.954;6.968;2023-03-15T02:20:20;100731.38;;;10.13;50.44
18784;BME280;9520;50.954;6.968;2023-03-15T02:20:51;100743.66;;;10.18;50.67
18784;BME280;9520;50.954;6.968;2023-03-15T02:21:28;100741.88;;;10.20;50.78